Terminal Aerodrome Forecast
Issued by NWS

Current Version | Previous Version | Graphics & Text | Print | Product List | Glossary On
Versions: 1 2 3 4 5 6 7 8 9 10 11 12 13 14 15 16 17 18
215
FTUS41 KILN 100538
TAFLCK
TAF
KLCK 100538Z 1006/1106 27011KT P6SM -SHSN OVC040
      TEMPO 1006/1009 OVC025
     FM101200 27014KT 1SM -SHSN OVC015
     FM101700 28016G24KT 4SM -SHSN OVC025
     FM102000 28014G20KT P6SM -SHSN OVC025=

USA.gov is the U.S. government's official web portal to all federal, state and local government web resources and services.